createdAt,value
2022-08-05T00:01:51.862Z,0.70
2022-08-05T00:06:57.817Z,0.70
2022-08-05T00:12:03.831Z,0.73
2022-08-05T00:17:19.447Z,0.70
2022-08-05T00:22:25.209Z,0.75
2022-08-05T00:27:36.437Z,0.73
2022-08-05T00:32:44.368Z,0.85
2022-08-05T00:37:52.852Z,0.73
2022-08-05T00:43:00.934Z,0.73
2022-08-05T00:48:10.108Z,0.70
2022-08-05T00:54:00.520Z,0.90
2022-08-05T00:58:42.484Z,1.00
2022-08-05T01:03:52.890Z,0.90
2022-08-05T01:08:58.094Z,1.00
2022-08-05T01:14:15.624Z,0.80
2022-08-05T01:19:56.388Z,0.80
2022-08-05T01:25:15.667Z,0.80
2022-08-05T01:30:34.881Z,0.90
2022-08-05T01:35:51.131Z,0.80
2022-08-05T01:41:01.913Z,0.70
2022-08-05T01:46:16.669Z,0.90
2022-08-05T01:51:38.594Z,0.70
2022-08-05T01:58:29.305Z,1.02
2022-08-05T02:02:16.002Z,0.90
2022-08-05T02:07:22.886Z,1.00
2022-08-05T02:12:37.777Z,1.00
2022-08-05T02:18:30.717Z,0.90
2022-08-05T02:23:20.509Z,0.90
2022-08-05T02:28:32.984Z,1.00
2022-08-05T02:33:45.556Z,0.90
2022-08-05T02:38:55.918Z,0.80
2022-08-05T02:44:06.875Z,0.90
2022-08-05T02:49:22.395Z,1.00
2022-08-05T02:54:35.668Z,0.80
2022-08-05T02:59:50.697Z,1.35
2022-08-05T03:06:56.806Z,1.10
2022-08-05T03:11:55.692Z,0.85
2022-08-05T03:16:15.804Z,0.80
2022-08-05T03:21:20.825Z,1.10
2022-08-05T03:26:30.927Z,1.10
2022-08-05T03:31:57.207Z,0.93
2022-08-05T03:37:03.120Z,1.10
2022-08-05T03:42:10.809Z,1.10
2022-08-05T03:47:15.911Z,1.08
2022-08-05T03:52:38.146Z,0.90
2022-08-05T03:57:56.285Z,0.90
2022-08-05T04:03:04.588Z,1.17
2022-08-05T04:08:14.889Z,0.98
2022-08-05T04:13:50.234Z,1.08
2022-08-05T04:18:57.698Z,1.20
2022-08-05T04:24:06.342Z,0.90
2022-08-05T04:29:16.546Z,0.98
2022-08-05T04:34:32.255Z,1.00
2022-08-05T04:39:39.125Z,0.90
2022-08-05T04:44:46.776Z,1.10
2022-08-05T04:50:02.988Z,1.00
2022-08-05T04:55:16.757Z,0.88
2022-08-05T05:00:30.083Z,0.80
2022-08-05T05:06:40.163Z,0.95
2022-08-05T05:11:01.230Z,0.98
2022-08-05T05:16:09.379Z,0.88
2022-08-05T05:21:14.278Z,0.90
2022-08-05T05:26:19.500Z,1.02
2022-08-05T05:36:40.189Z,0.75
2022-08-05T05:41:45.029Z,0.70
2022-08-05T05:47:04.261Z,0.80
2022-08-05T05:52:12.982Z,0.90
2022-08-05T05:57:42.625Z,0.90
2022-08-05T06:02:50.846Z,0.77
2022-08-05T06:07:58.003Z,0.85
2022-08-05T06:13:07.727Z,0.70
2022-08-05T06:18:16.178Z,0.90
2022-08-05T06:23:22.483Z,0.85
2022-08-05T06:28:28.557Z,0.88
2022-08-05T06:34:07.298Z,0.80
2022-08-05T06:39:01.205Z,0.85
2022-08-05T06:44:06.412Z,1.00
2022-08-05T06:49:13.855Z,0.88
2022-08-05T06:54:19.048Z,1.10
2022-08-05T06:59:24.333Z,0.80
2022-08-05T07:04:32.003Z,0.90
2022-08-05T07:09:40.617Z,0.90
2022-08-05T07:15:00.674Z,0.90
2022-08-05T07:20:32.190Z,0.80
2022-08-05T07:25:54.908Z,0.90
2022-08-05T07:30:58.925Z,0.77
2022-08-05T07:36:20.806Z,0.80
2022-08-05T07:42:12.847Z,0.85
2022-08-05T07:46:52.587Z,0.80
2022-08-05T07:52:01.374Z,0.80
2022-08-05T07:57:16.969Z,0.85
2022-08-05T08:03:14.554Z,1.00
2022-08-05T08:08:00.809Z,0.63
2022-08-05T08:13:05.911Z,0.80
2022-08-05T08:18:14.376Z,0.60
2022-08-05T08:24:02.598Z,0.70
2022-08-05T08:28:55.297Z,0.70
2022-08-05T08:34:04.674Z,0.60
2022-08-05T08:39:15.435Z,0.50
2022-08-05T08:45:18.936Z,0.60
2022-08-05T08:50:13.057Z,0.57
2022-08-05T08:55:32.024Z,0.60
2022-08-05T09:00:45.389Z,0.65
2022-08-05T09:06:08.971Z,0.60
2022-08-05T09:11:18.981Z,0.55
2022-08-05T09:16:48.714Z,0.70
2022-08-05T09:22:18.514Z,0.60
2022-08-05T09:28:04.147Z,0.60
2022-08-05T09:33:04.981Z,0.60
2022-08-05T09:38:12.580Z,0.60
2022-08-05T09:43:40.636Z,0.70
2022-08-05T09:49:06.883Z,0.60
2022-08-05T09:54:12.220Z,0.77
2022-08-05T09:59:27.978Z,0.60
2022-08-05T10:04:39.801Z,0.70
2022-08-05T10:10:04.273Z,0.57
2022-08-05T10:15:28.774Z,0.50
2022-08-05T10:20:41.997Z,0.50
2022-08-05T10:25:47.329Z,0.70
2022-08-05T10:32:51.665Z,0.60
2022-08-05T10:36:26.141Z,0.70
2022-08-05T10:41:45.165Z,0.70
2022-08-05T10:46:56.996Z,0.52
2022-08-05T10:52:05.270Z,0.50
2022-08-05T10:57:16.137Z,0.70
2022-08-05T11:02:37.705Z,0.50
2022-08-05T11:08:12.736Z,0.40
2022-08-05T11:13:54.839Z,0.50
2022-08-05T11:20:11.215Z,0.50
2022-08-05T11:26:04.761Z,0.43
2022-08-05T11:31:57.115Z,0.40
2022-08-05T11:36:54.022Z,0.38
2022-08-05T11:42:02.385Z,0.40
2022-08-05T11:47:15.153Z,0.40
2022-08-05T11:52:31.047Z,0.50
2022-08-05T11:58:08.121Z,0.30
2022-08-05T12:03:01.456Z,0.45
2022-08-05T12:08:11.546Z,0.32
2022-08-05T12:13:47.829Z,0.40
2022-08-05T12:18:52.466Z,0.40
2022-08-05T12:24:04.982Z,0.30
2022-08-05T12:29:16.146Z,0.45
2022-08-05T12:34:23.705Z,0.40
2022-08-05T12:39:38.782Z,0.50
2022-08-05T12:44:44.745Z,0.35
2022-08-05T12:50:03.725Z,0.40
2022-08-05T12:55:26.186Z,0.40
2022-08-05T13:02:03.767Z,0.40
2022-08-05T13:05:59.138Z,0.50
2022-08-05T13:11:09.058Z,0.30
2022-08-05T13:16:17.257Z,0.40
2022-08-05T13:21:22.520Z,0.50
2022-08-05T13:26:36.267Z,0.50
2022-08-05T13:32:04.931Z,0.30
2022-08-05T13:37:08.864Z,0.50
2022-08-05T13:42:16.610Z,0.50
2022-08-05T13:47:36.006Z,0.50
2022-08-05T13:52:49.869Z,0.50
2022-08-05T13:57:57.754Z,0.55
2022-08-05T14:03:04.219Z,0.57
2022-08-05T14:08:20.328Z,0.55
2022-08-05T14:13:34.855Z,0.45
2022-08-05T14:18:40.176Z,0.80
2022-08-05T14:23:46.475Z,0.43
2022-08-05T14:28:55.684Z,0.40
2022-08-05T14:34:01.751Z,0.45
2022-08-05T14:39:10.894Z,0.50
2022-08-05T14:44:20.186Z,0.50
2022-08-05T14:49:25.843Z,0.40
2022-08-05T14:54:52.816Z,0.50
2022-08-05T15:00:00.994Z,0.50
2022-08-05T15:05:08.772Z,0.55
2022-08-05T15:10:18.740Z,0.70
2022-08-05T15:15:55.866Z,0.50
2022-08-05T15:21:07.536Z,0.50
2022-08-05T15:26:13.199Z,0.50
2022-08-05T15:31:21.152Z,0.50
2022-08-05T15:36:27.475Z,0.50
2022-08-05T15:41:57.793Z,0.60
2022-08-05T15:47:02.197Z,0.50
2022-08-05T15:52:15.823Z,0.50
2022-08-05T15:57:23.225Z,0.50
2022-08-05T16:02:32.271Z,0.70
2022-08-05T16:07:38.748Z,0.38
2022-08-05T16:12:52.981Z,0.47
2022-08-05T16:18:04.323Z,0.60
2022-08-05T16:23:15.568Z,0.70
2022-08-05T16:28:29.265Z,1.00
2022-08-05T16:33:41.243Z,1.23
2022-08-05T16:38:54.712Z,1.48
2022-08-05T16:44:00.951Z,1.90
2022-08-05T16:49:12.452Z,1.90
2022-08-05T16:54:32.929Z,2.30
2022-08-05T17:00:01.298Z,1.83
2022-08-05T17:05:08.762Z,2.10
2022-08-05T17:10:14.453Z,1.60
2022-08-05T17:15:19.914Z,1.70
2022-08-05T17:20:27.666Z,1.45
2022-08-05T17:25:39.939Z,1.35
2022-08-05T17:30:52.122Z,1.20
2022-08-05T17:36:07.661Z,1.00
2022-08-05T17:42:16.605Z,1.15
2022-08-05T17:46:40.656Z,1.20
2022-08-05T17:51:50.116Z,1.10
2022-08-05T17:56:55.111Z,1.17
2022-08-05T18:02:03.487Z,1.00
2022-08-05T18:07:18.433Z,0.90
2022-08-05T18:12:25.781Z,1.00
2022-08-05T18:18:00.831Z,0.90
2022-08-05T18:23:09.217Z,0.95
2022-08-05T18:28:17.908Z,0.75
2022-08-05T18:33:28.405Z,0.77
2022-08-05T18:38:57.583Z,0.60
2022-08-05T18:44:06.537Z,0.60
2022-08-05T18:49:30.713Z,0.60
2022-08-05T18:54:51.811Z,0.50
2022-08-05T19:00:03.204Z,0.60
2022-08-05T19:06:05.450Z,0.38
2022-08-05T19:10:37.769Z,0.52
2022-08-05T19:15:58.854Z,0.50
2022-08-05T19:21:05.372Z,0.52
2022-08-05T19:26:16.686Z,0.52
2022-08-05T19:31:22.964Z,0.57
2022-08-05T19:36:29.374Z,0.70
2022-08-05T19:42:06.892Z,0.52
2022-08-05T19:47:03.062Z,0.68
2022-08-05T19:52:30.728Z,0.60
2022-08-05T19:57:49.145Z,0.55
2022-08-05T20:03:08.452Z,0.50
2022-08-05T20:08:15.270Z,0.82
2022-08-05T20:13:54.768Z,0.73
2022-08-05T20:18:55.567Z,0.95
2022-08-05T20:24:01.372Z,0.77
2022-08-05T20:29:27.329Z,0.80
2022-08-05T20:34:33.126Z,0.90
2022-08-05T20:39:39.307Z,0.90
2022-08-05T20:44:48.506Z,1.00
2022-08-05T20:49:53.436Z,0.90
2022-08-05T20:55:56.532Z,1.10
2022-08-05T21:00:49.712Z,1.10
2022-08-05T21:05:55.438Z,0.90
2022-08-05T21:11:00.701Z,0.75
2022-08-05T21:16:17.397Z,0.90
2022-08-05T21:21:24.475Z,0.63
2022-08-05T21:26:29.599Z,0.70
2022-08-05T21:31:41.590Z,0.85
2022-08-05T21:36:46.773Z,1.13
2022-08-05T21:42:01.159Z,1.30
2022-08-05T21:47:32.715Z,1.25
2022-08-05T21:52:34.168Z,1.30
2022-08-05T21:57:42.758Z,1.10
2022-08-05T22:02:50.378Z,1.20
2022-08-05T22:07:58.812Z,1.20
2022-08-05T22:14:18.470Z,1.13
2022-08-05T22:18:36.487Z,1.10
2022-08-05T22:24:02.764Z,1.20
2022-08-05T22:29:09.493Z,1.02
2022-08-05T22:34:20.092Z,0.90
2022-08-05T22:39:33.926Z,0.80
2022-08-05T22:44:39.573Z,1.00
2022-08-05T22:50:20.156Z,0.95
2022-08-05T22:55:19.021Z,1.00
2022-08-05T23:00:26.662Z,1.00
2022-08-05T23:05:35.897Z,1.10
2022-08-05T23:10:43.010Z,0.90
2022-08-05T23:15:50.265Z,0.90
2022-08-05T23:20:57.839Z,1.00
2022-08-05T23:26:03.158Z,0.90
2022-08-05T23:31:16.942Z,0.90
2022-08-05T23:36:28.328Z,1.10
2022-08-05T23:41:48.770Z,1.00
2022-08-05T23:46:53.740Z,1.00
2022-08-05T23:52:16.298Z,0.90
2022-08-05T23:57:21.303Z,0.90
